KLHZ

Triangle North Executive Airport

Louisburg, North Carolina, USA
METAR KLHZ 181515Z AUTO 32003KT 10SM CLR M05/M09 A3030 RMK AO2
Observed Flight Rules
Jan-18 @ 15:15 UTC (17 minutes ago) Visual Flight Rules
Wind Visibility Clouds
320° at 3 knots 10 miles
  • Clear skies
Temperatures Readings
Current -5°C / 23°F
Dewpoint -9°C / 16°F
Humidity 74%
Altimeter 30.3" Hg
Pressure 1026 hPa
Elevation 113
METAR KLHZ 181515Z AUTO 32003KT 10SM CLR M05/M09 A3030 RMK AO2
Observed Flight Rules
Jan-18 @ 15:15 UTC
(17 minutes ago)
VFR
Wind Visibility
320° at 3 knots 10 miles
Clouds
  • Clear skies
Temperature Dewpoint
-5°C / 23°F -9°C / 16°F
Humidity Altimeter Pressure
74% 30.3" Hg 1026 hPa